Pearl Of Scandinavia — OWFU2 — position and weather

sailwx.info

Track history (hours):
 
Tides and Currents Weather Stations Pressure Air Temp Water Temp Dewpoint Dewpoint Depression Visibility Wind Speed Wind Dir Waves Ship Positions

Pearl Of Scandinavia

Last reported at 2015-Jul-07 04:33 UTC. Time now 2015-Jul-07 04:36 UTC.
Position N 59°13' E 010°38'.

Length 176.4 m; beam 34 m; draft 6.215 m.

Type: Ship. MMSI: 219945000.

Date/timePositionNaut miles runAvg speedWind from/ knotsBaromVisibWave heightAir tempDewpointWater temp
2015-Jul-07 04:33N 59°13' E 010°38'1616.1
2015-Jul-07 03:33N 58°57' E 010°42'1615.6
2015-Jul-07 02:33N 58°41' E 010°46'1715.9
2015-Jul-07 01:30N 58°25' E 010°56'1515.8
2015-Jul-07 00:33N 58°11' E 011°05'1616.2
2015-Jul-06 23:33N 57°56' E 011°14'1716.5
2015-Jul-06 22:33N 57°40' E 011°24'1716.5
2015-Jul-06 21:32N 57°24' E 011°32'1716.8
2015-Jul-06 20:33N 57°08' E 011°40'1716.6
2015-Jul-06 19:33N 56°52' E 011°50'1616.5
2015-Jul-06 18:33N 56°36' E 011°58'1716.3
2015-Jul-06 17:32N 56°22' E 012°14'1616.5
2015-Jul-06 16:33N 56°09' E 012°31'1616.1
2015-Jul-06 15:33N 55°55' E 012°44'1313.2
2015-Jul-06 14:33N 55°42' E 012°36'0 0.1
2015-Jul-06 13:31N 55°42' E 012°36'0 0.0
2015-Jul-06 12:31N 55°42' E 012°36'0 0.0
2015-Jul-06 11:31N 55°42' E 012°36'0 0.0
2015-Jul-06 10:31N 55°42' E 012°36'0 0.0
2015-Jul-06 09:31N 55°42' E 012°36'0 0.0
2015-Jul-06 08:31N 55°42' E 012°36'0 0.2
2015-Jul-06 07:34N 55°42' E 012°36'1110.9
2015-Jul-06 06:33N 55°53' E 012°40'1414.2
2015-Jul-06 05:33N 56°07' E 012°32'7815.6
2015-Jul-06 00:33N 57°20' E 011°44'1616.6
2015-Jul-05 23:34N 57°34' E 011°29'1817.6
2015-Jul-05 22:33N 57°50' E 011°16'1716.9
2015-Jul-05 21:33N 58°07' E 011°07'1616.2
2015-Jul-05 20:33N 58°22' E 010°58'1716.6
2015-Jul-05 19:33N 58°38' E 010°49'1716.6
2015-Jul-05 18:33N 58°55' E 010°44'1716.9
2015-Jul-05 17:33N 59°11' E 010°38'1717.0
2015-Jul-05 16:33N 59°28' E 010°34'1714.2
2015-Jul-05 15:19N 59°46' E 010°33'9 1.1
2015-Jul-05 07:22N 59°53' E 010°41'1713.7
2015-Jul-05 06:10N 59°37' E 010°38'1016.0
2015-Jul-05 05:33N 59°27' E 010°34'1616.2
2015-Jul-05 04:33N 59°11' E 010°39'1616.2
2015-Jul-05 03:33N 58°55' E 010°43'1616.3
2015-Jul-05 02:33N 58°39' E 010°47'1716.7
2015-Jul-05 01:33N 58°23' E 010°57'1717.0
2015-Jul-05 00:33N 58°07' E 011°06'1717.1
2015-Jul-04 23:33N 57°51' E 011°16'1616.1
2015-Jul-04 22:33N 57°35' E 011°25'1616.4
2015-Jul-04 21:34N 57°20' E 011°34'1616.0
2015-Jul-04 20:34N 57°05' E 011°43'1615.8
2015-Jul-04 19:34N 56°50' E 011°52'1615.8
2015-Jul-04 18:33N 56°34' E 011°59'1615.7
2015-Jul-04 17:33N 56°21' E 012°15'1717.0
2015-Jul-04 16:33N 56°07' E 012°33'1616.1
2015-Jul-04 15:33N 55°53' E 012°44'1211.6
2015-Jul-04 14:34N 55°42' E 012°36'0 0.0
2015-Jul-04 13:33N 55°42' E 012°36'0 0.0
2015-Jul-04 12:33N 55°42' E 012°36'0 0.0
2015-Jul-04 11:33N 55°42' E 012°36'0 0.0
2015-Jul-04 10:33N 55°42' E 012°36'0 0.0
2015-Jul-04 09:33N 55°42' E 012°36'0 0.0
2015-Jul-04 08:33N 55°42' E 012°36'1 1.3
2015-Jul-04 07:33N 55°43' E 012°38'1514.6
2015-Jul-04 06:34N 55°57' E 012°40'1615.6
2015-Jul-04 05:34N 56°11' E 012°28'1615.6
2015-Jul-04 04:33N 56°26' E 012°19'1818.2
2015-Jul-04 03:33N 56°43' E 012°08'1817.8
2015-Jul-04 02:33N 57°00' E 011°59'1717.2
2015-Jul-04 01:33N 57°16' E 011°48'1717.3
2015-Jul-04 00:33N 57°31' E 011°30'1817.7
2015-Jul-03 23:33N 57°47' E 011°15'1817.5
2015-Jul-03 22:33N 58°03' E 011°02'1717.2
2015-Jul-03 21:33N 58°18' E 010°48'1717.1
2015-Jul-03 20:33N 58°35' E 010°38'1717.2
2015-Jul-03 19:33N 58°52' E 010°38'1817.7
2015-Jul-03 18:33N 59°10' E 010°38'1717.4
2015-Jul-03 17:33N 59°27' E 010°33'27 2.7
2015-Jul-03 07:23N 59°54' E 010°41'2614.1
2015-Jul-03 05:33N 59°28' E 010°34'1616.1
2015-Jul-03 04:33N 59°12' E 010°39'1716.6
2015-Jul-03 03:33N 58°56' E 010°42'1716.5
2015-Jul-03 02:33N 58°39' E 010°46'1816.9
2015-Jul-03 01:31N 58°23' E 010°57'1617.0
2015-Jul-03 00:33N 58°07' E 011°06'1716.9
2015-Jul-02 23:33N 57°51' E 011°16'1616.3
2015-Jul-02 22:33N 57°35' E 011°25'1616.4
2015-Jul-02 21:33N 57°20' E 011°34'1616.3
2015-Jul-02 20:33N 57°04' E 011°43'1616.0
2015-Jul-02 19:33N 56°49' E 011°52'1615.8
2015-Jul-02 18:33N 56°34' E 012°01'1615.5
2015-Jul-02 17:33N 56°20' E 012°15'1717.0
2015-Jul-02 16:33N 56°07' E 012°33'1716.5
2015-Jul-02 15:33N 55°52' E 012°45'1110.7
2015-Jul-02 14:33N 55°42' E 012°36'0 0.0
2015-Jul-02 13:31N 55°42' E 012°36'0 0.0
2015-Jul-02 12:31N 55°42' E 012°36'0 0.0
2015-Jul-02 11:31N 55°42' E 012°36'0 0.0
2015-Jul-02 10:22N 55°42' E 012°36'0 0.0
2015-Jul-02 09:31N 55°42' E 012°36'0 0.0
2015-Jul-02 08:31N 55°42' E 012°36'0 0.2
2015-Jul-02 07:33N 55°42' E 012°36'1110.7
2015-Jul-02 06:33N 55°53' E 012°40'1413.7
2015-Jul-02 05:33N 56°06' E 012°34'1514.9
2015-Jul-02 04:34N 56°19' E 012°22'1817.7
2015-Jul-02 03:33N 56°37' E 012°15'1817.9
2015-Jul-02 02:33N 56°54' E 012°07'1717.2
2015-Jul-02 01:33N 57°10' E 011°54'1716.7
2015-Jul-02 00:33N 57°24' E 011°38'1817.5
2015-Jul-01 23:33N 57°40' E 011°24'1716.8
2015-Jul-01 22:33N 57°56' E 011°13'1716.7
2015-Jul-01 21:33N 58°11' E 011°03'1616.1
2015-Jul-01 20:33N 58°27' E 010°56'1616.1
2015-Jul-01 19:33N 58°42' E 010°47'1616.3
2015-Jul-01 18:33N 58°59' E 010°42'1716.9
2015-Jul-01 17:33N 59°15' E 010°37'1616.1
2015-Jul-01 16:34N 59°31' E 010°35'1413.5
2015-Jul-01 15:33N 59°45' E 010°33'9 1.2
2015-Jul-01 07:21N 59°54' E 010°41'1814.0
2015-Jul-01 06:06N 59°36' E 010°38'916.0
2015-Jul-01 05:33N 59°28' E 010°34'1615.8
2015-Jul-01 04:33N 59°12' E 010°39'1616.2
2015-Jul-01 03:33N 58°56' E 010°42'1616.3
2015-Jul-01 02:33N 58°40' E 010°46'1716.7
2015-Jul-01 01:33N 58°24' E 010°55'1817.9
2015-Jul-01 00:33N 58°07' E 011°05'1717.0
2015-Jun-30 23:33N 57°50' E 011°16'1616.4
2015-Jun-30 22:33N 57°35' E 011°26'1716.6
2015-Jun-30 21:33N 57°19' E 011°35'1616.4
2015-Jun-30 20:33N 57°04' E 011°44'1515.0
2015-Jun-30 19:33N 56°50' E 011°55'1515.0
2015-Jun-30 18:33N 56°37' E 012°09'1616.1
2015-Jun-30 17:33N 56°22' E 012°21'1616.4
2015-Jun-30 16:33N 56°07' E 012°33'1615.6
2015-Jun-30 15:33N 55°53' E 012°44'1211.9
2015-Jun-30 14:33N 55°42' E 012°36'0 0.0
2015-Jun-30 13:33N 55°42' E 012°36'0 0.0
2015-Jun-30 12:33N 55°42' E 012°36'0 0.0
2015-Jun-30 11:30N 55°42' E 012°36'0 0.0
2015-Jun-30 10:24N 55°42' E 012°36'0 0.0
2015-Jun-30 09:33N 55°42' E 012°36'0 0.0
2015-Jun-30 08:33N 55°42' E 012°36'1 0.7
2015-Jun-30 07:33N 55°43' E 012°37'1211.5
2015-Jun-30 06:33N 55°54' E 012°39'1514.8
2015-Jun-30 05:33N 56°08' E 012°31'1615.7
2015-Jun-30 04:33N 56°23' E 012°20'1615.9
2015-Jun-30 03:33N 56°38' E 012°12'1616.2
2015-Jun-30 02:34N 56°53' E 012°03'1616.4
2015-Jun-30 01:34N 57°09' E 011°54'1616.3
2015-Jun-30 00:33N 57°23' E 011°39'1717.0
2015-Jun-29 23:33N 57°38' E 011°23'1717.4
2015-Jun-29 22:33N 57°54' E 011°09'1616.5
2015-Jun-29 21:33N 58°08' E 010°56'1616.3
2015-Jun-29 20:34N 58°23' E 010°44'3316.4
2015-Jun-29 18:34N 58°56' E 010°38'1716.5
2015-Jun-29 17:33N 59°12' E 010°37'1615.9
2015-Jun-29 16:33N 59°28' E 010°34'26 2.8
2015-Jun-29 07:23N 59°54' E 010°41'1314.1
2015-Jun-29 06:29N 59°41' E 010°37'1213.6
2015-Jun-29 05:34N 59°29' E 010°34'1616.0
2015-Jun-29 04:34N 59°13' E 010°38'1716.6
2015-Jun-29 03:33N 58°56' E 010°44'1615.9
2015-Jun-29 02:33N 58°41' E 010°48'1716.6
2015-Jun-29 01:33N 58°24' E 010°57'1916.9
2015-Jun-29 00:25N 58°06' E 011°08'1416.7
2015-Jun-28 23:33N 57°53' E 011°17'1515.3
2015-Jun-28 22:34N 57°38' E 011°25'1616.0
2015-Jun-28 21:33N 57°23' E 011°33'1616.1
2015-Jun-28 20:34N 57°07' E 011°42'1615.8
2015-Jun-28 19:33N 56°52' E 011°52'1515.4
2015-Jun-28 18:33N 56°39' E 012°06'1615.6
2015-Jun-28 17:33N 56°25' E 012°19'1616.1
2015-Jun-28 16:33N 56°10' E 012°30'1616.5
2015-Jun-28 15:34N 55°56' E 012°43'1413.8
2015-Jun-28 14:33N 55°42' E 012°37'0 0.5
2015-Jun-28 13:31N 55°42' E 012°36'0 0.0
2015-Jun-28 12:31N 55°42' E 012°36'0 0.0
2015-Jun-28 11:31N 55°42' E 012°36'0 0.0
2015-Jun-28 10:31N 55°42' E 012°36'0 0.0
2015-Jun-28 09:31N 55°42' E 012°36'0 0.0
2015-Jun-28 08:31N 55°42' E 012°36'0 0.3
2015-Jun-28 07:33N 55°42' E 012°36'1211.7
2015-Jun-28 06:33N 55°54' E 012°39'1413.6
2015-Jun-28 05:33N 56°07' E 012°32'1414.5
2015-Jun-28 04:33N 56°20' E 012°22'1515.1
2015-Jun-28 03:33N 56°35' E 012°16'1615.8
2015-Jun-28 02:33N 56°50' E 012°10'1616.2
2015-Jun-28 01:33N 57°06' E 011°59'1616.2
2015-Jun-28 00:33N 57°20' E 011°46'1616.2
2015-Jun-27 23:33N 57°34' E 011°32'1616.3
2015-Jun-27 22:33N 57°49' E 011°17'1716.7
2015-Jun-27 21:33N 58°05' E 011°08'1616.6
2015-Jun-27 20:33N 58°21' E 010°60'3216.1
2015-Jun-27 18:33N 58°52' E 010°44'1716.8
2015-Jun-27 17:33N 59°08' E 010°39'1716.5
2015-Jun-27 16:33N 59°25' E 010°33'1515.1
2015-Jun-27 15:33N 59°40' E 010°37'1413.6
2015-Jun-27 14:32N 59°53' E 010°41'0 0.0
2015-Jun-27 07:20N 59°54' E 010°41'2614.4
2015-Jun-27 05:34N 59°28' E 010°34'1616.2
2015-Jun-27 04:33N 59°12' E 010°39'  
Track history (hours):
 
Tides and Currents Weather Stations Pressure Air Temp Water Temp Dewpoint Dewpoint Depression Visibility Wind Speed Wind Dir Waves Ship Positions

Pearl Of Scandinavia

Last reported at 2015-Jul-07 04:33 UTC. Time now 2015-Jul-07 04:36 UTC.
Position N 59°13' E 010°38'.

Length 176.4 m; beam 34 m; draft 6.215 m.

Type: Ship. MMSI: 219945000.

Date/timePositionNaut miles runAvg speedWind from/ knotsBaromVisibWave heightAir tempDewpointWater temp
2015-Jul-07 04:33N 59°13' E 010°38'1616.1
2015-Jul-07 03:33N 58°57' E 010°42'1615.6
2015-Jul-07 02:33N 58°41' E 010°46'1715.9
2015-Jul-07 01:30N 58°25' E 010°56'1515.8
2015-Jul-07 00:33N 58°11' E 011°05'1616.2
2015-Jul-06 23:33N 57°56' E 011°14'1716.5
2015-Jul-06 22:33N 57°40' E 011°24'1716.5
2015-Jul-06 21:32N 57°24' E 011°32'1716.8
2015-Jul-06 20:33N 57°08' E 011°40'1716.6
2015-Jul-06 19:33N 56°52' E 011°50'1616.5
2015-Jul-06 18:33N 56°36' E 011°58'1716.3
2015-Jul-06 17:32N 56°22' E 012°14'1616.5
2015-Jul-06 16:33N 56°09' E 012°31'1616.1
2015-Jul-06 15:33N 55°55' E 012°44'1313.2
2015-Jul-06 14:33N 55°42' E 012°36'0 0.1
2015-Jul-06 13:31N 55°42' E 012°36'0 0.0
2015-Jul-06 12:31N 55°42' E 012°36'0 0.0
2015-Jul-06 11:31N 55°42' E 012°36'0 0.0
2015-Jul-06 10:31N 55°42' E 012°36'0 0.0
2015-Jul-06 09:31N 55°42' E 012°36'0 0.0
2015-Jul-06 08:31N 55°42' E 012°36'0 0.2
2015-Jul-06 07:34N 55°42' E 012°36'1110.9
2015-Jul-06 06:33N 55°53' E 012°40'1414.2
2015-Jul-06 05:33N 56°07' E 012°32'7815.6
2015-Jul-06 00:33N 57°20' E 011°44'1616.6
2015-Jul-05 23:34N 57°34' E 011°29'1817.6
2015-Jul-05 22:33N 57°50' E 011°16'1716.9
2015-Jul-05 21:33N 58°07' E 011°07'1616.2
2015-Jul-05 20:33N 58°22' E 010°58'1716.6
2015-Jul-05 19:33N 58°38' E 010°49'1716.6
2015-Jul-05 18:33N 58°55' E 010°44'1716.9
2015-Jul-05 17:33N 59°11' E 010°38'1717.0
2015-Jul-05 16:33N 59°28' E 010°34'1714.2
2015-Jul-05 15:19N 59°46' E 010°33'9 1.1
2015-Jul-05 07:22N 59°53' E 010°41'1713.7
2015-Jul-05 06:10N 59°37' E 010°38'1016.0
2015-Jul-05 05:33N 59°27' E 010°34'1616.2
2015-Jul-05 04:33N 59°11' E 010°39'1616.2
2015-Jul-05 03:33N 58°55' E 010°43'1616.3
2015-Jul-05 02:33N 58°39' E 010°47'1716.7
2015-Jul-05 01:33N 58°23' E 010°57'1717.0
2015-Jul-05 00:33N 58°07' E 011°06'1717.1
2015-Jul-04 23:33N 57°51' E 011°16'1616.1
2015-Jul-04 22:33N 57°35' E 011°25'1616.4
2015-Jul-04 21:34N 57°20' E 011°34'1616.0
2015-Jul-04 20:34N 57°05' E 011°43'1615.8
2015-Jul-04 19:34N 56°50' E 011°52'1615.8
2015-Jul-04 18:33N 56°34' E 011°59'1615.7
2015-Jul-04 17:33N 56°21' E 012°15'1717.0
2015-Jul-04 16:33N 56°07' E 012°33'1616.1
2015-Jul-04 15:33N 55°53' E 012°44'1211.6
2015-Jul-04 14:34N 55°42' E 012°36'0 0.0
2015-Jul-04 13:33N 55°42' E 012°36'0 0.0
2015-Jul-04 12:33N 55°42' E 012°36'0 0.0
2015-Jul-04 11:33N 55°42' E 012°36'0 0.0
2015-Jul-04 10:33N 55°42' E 012°36'0 0.0
2015-Jul-04 09:33N 55°42' E 012°36'0 0.0
2015-Jul-04 08:33N 55°42' E 012°36'1 1.3
2015-Jul-04 07:33N 55°43' E 012°38'1514.6
2015-Jul-04 06:34N 55°57' E 012°40'1615.6
2015-Jul-04 05:34N 56°11' E 012°28'1615.6
2015-Jul-04 04:33N 56°26' E 012°19'1818.2
2015-Jul-04 03:33N 56°43' E 012°08'1817.8
2015-Jul-04 02:33N 57°00' E 011°59'1717.2
2015-Jul-04 01:33N 57°16' E 011°48'1717.3
2015-Jul-04 00:33N 57°31' E 011°30'1817.7
2015-Jul-03 23:33N 57°47' E 011°15'1817.5
2015-Jul-03 22:33N 58°03' E 011°02'1717.2
2015-Jul-03 21:33N 58°18' E 010°48'1717.1
2015-Jul-03 20:33N 58°35' E 010°38'1717.2
2015-Jul-03 19:33N 58°52' E 010°38'1817.7
2015-Jul-03 18:33N 59°10' E 010°38'1717.4
2015-Jul-03 17:33N 59°27' E 010°33'27 2.7
2015-Jul-03 07:23N 59°54' E 010°41'2614.1
2015-Jul-03 05:33N 59°28' E 010°34'1616.1
2015-Jul-03 04:33N 59°12' E 010°39'1716.6
2015-Jul-03 03:33N 58°56' E 010°42'1716.5
2015-Jul-03 02:33N 58°39' E 010°46'1816.9
2015-Jul-03 01:31N 58°23' E 010°57'1617.0
2015-Jul-03 00:33N 58°07' E 011°06'1716.9
2015-Jul-02 23:33N 57°51' E 011°16'1616.3
2015-Jul-02 22:33N 57°35' E 011°25'1616.4
2015-Jul-02 21:33N 57°20' E 011°34'1616.3
2015-Jul-02 20:33N 57°04' E 011°43'1616.0
2015-Jul-02 19:33N 56°49' E 011°52'1615.8
2015-Jul-02 18:33N 56°34' E 012°01'1615.5
2015-Jul-02 17:33N 56°20' E 012°15'1717.0
2015-Jul-02 16:33N 56°07' E 012°33'1716.5
2015-Jul-02 15:33N 55°52' E 012°45'1110.7
2015-Jul-02 14:33N 55°42' E 012°36'0 0.0
2015-Jul-02 13:31N 55°42' E 012°36'0 0.0
2015-Jul-02 12:31N 55°42' E 012°36'0 0.0
2015-Jul-02 11:31N 55°42' E 012°36'0 0.0
2015-Jul-02 10:22N 55°42' E 012°36'0 0.0
2015-Jul-02 09:31N 55°42' E 012°36'0 0.0
2015-Jul-02 08:31N 55°42' E 012°36'0 0.2
2015-Jul-02 07:33N 55°42' E 012°36'1110.7
2015-Jul-02 06:33N 55°53' E 012°40'1413.7
2015-Jul-02 05:33N 56°06' E 012°34'1514.9
2015-Jul-02 04:34N 56°19' E 012°22'1817.7
2015-Jul-02 03:33N 56°37' E 012°15'1817.9
2015-Jul-02 02:33N 56°54' E 012°07'1717.2
2015-Jul-02 01:33N 57°10' E 011°54'1716.7
2015-Jul-02 00:33N 57°24' E 011°38'1817.5
2015-Jul-01 23:33N 57°40' E 011°24'1716.8
2015-Jul-01 22:33N 57°56' E 011°13'1716.7
2015-Jul-01 21:33N 58°11' E 011°03'1616.1
2015-Jul-01 20:33N 58°27' E 010°56'1616.1
2015-Jul-01 19:33N 58°42' E 010°47'1616.3
2015-Jul-01 18:33N 58°59' E 010°42'1716.9
2015-Jul-01 17:33N 59°15' E 010°37'1616.1
2015-Jul-01 16:34N 59°31' E 010°35'1413.5
2015-Jul-01 15:33N 59°45' E 010°33'9 1.2
2015-Jul-01 07:21N 59°54' E 010°41'1814.0
2015-Jul-01 06:06N 59°36' E 010°38'916.0
2015-Jul-01 05:33N 59°28' E 010°34'1615.8
2015-Jul-01 04:33N 59°12' E 010°39'1616.2
2015-Jul-01 03:33N 58°56' E 010°42'1616.3
2015-Jul-01 02:33N 58°40' E 010°46'1716.7
2015-Jul-01 01:33N 58°24' E 010°55'1817.9
2015-Jul-01 00:33N 58°07' E 011°05'1717.0
2015-Jun-30 23:33N 57°50' E 011°16'1616.4
2015-Jun-30 22:33N 57°35' E 011°26'1716.6
2015-Jun-30 21:33N 57°19' E 011°35'1616.4
2015-Jun-30 20:33N 57°04' E 011°44'1515.0
2015-Jun-30 19:33N 56°50' E 011°55'1515.0
2015-Jun-30 18:33N 56°37' E 012°09'1616.1
2015-Jun-30 17:33N 56°22' E 012°21'1616.4
2015-Jun-30 16:33N 56°07' E 012°33'1615.6
2015-Jun-30 15:33N 55°53' E 012°44'1211.9
2015-Jun-30 14:33N 55°42' E 012°36'0 0.0
2015-Jun-30 13:33N 55°42' E 012°36'0 0.0
2015-Jun-30 12:33N 55°42' E 012°36'0 0.0
2015-Jun-30 11:30N 55°42' E 012°36'0 0.0
2015-Jun-30 10:24N 55°42' E 012°36'0 0.0
2015-Jun-30 09:33N 55°42' E 012°36'0 0.0
2015-Jun-30 08:33N 55°42' E 012°36'1 0.7
2015-Jun-30 07:33N 55°43' E 012°37'1211.5
2015-Jun-30 06:33N 55°54' E 012°39'1514.8
2015-Jun-30 05:33N 56°08' E 012°31'1615.7
2015-Jun-30 04:33N 56°23' E 012°20'1615.9
2015-Jun-30 03:33N 56°38' E 012°12'1616.2
2015-Jun-30 02:34N 56°53' E 012°03'1616.4
2015-Jun-30 01:34N 57°09' E 011°54'1616.3
2015-Jun-30 00:33N 57°23' E 011°39'1717.0
2015-Jun-29 23:33N 57°38' E 011°23'1717.4
2015-Jun-29 22:33N 57°54' E 011°09'1616.5
2015-Jun-29 21:33N 58°08' E 010°56'1616.3
2015-Jun-29 20:34N 58°23' E 010°44'3316.4
2015-Jun-29 18:34N 58°56' E 010°38'1716.5
2015-Jun-29 17:33N 59°12' E 010°37'1615.9
2015-Jun-29 16:33N 59°28' E 010°34'26 2.8
2015-Jun-29 07:23N 59°54' E 010°41'1314.1
2015-Jun-29 06:29N 59°41' E 010°37'1213.6
2015-Jun-29 05:34N 59°29' E 010°34'1616.0
2015-Jun-29 04:34N 59°13' E 010°38'1716.6
2015-Jun-29 03:33N 58°56' E 010°44'1615.9
2015-Jun-29 02:33N 58°41' E 010°48'1716.6
2015-Jun-29 01:33N 58°24' E 010°57'1916.9
2015-Jun-29 00:25N 58°06' E 011°08'1416.7
2015-Jun-28 23:33N 57°53' E 011°17'1515.3
2015-Jun-28 22:34N 57°38' E 011°25'1616.0
2015-Jun-28 21:33N 57°23' E 011°33'1616.1
2015-Jun-28 20:34N 57°07' E 011°42'1615.8
2015-Jun-28 19:33N 56°52' E 011°52'1515.4
2015-Jun-28 18:33N 56°39' E 012°06'1615.6
2015-Jun-28 17:33N 56°25' E 012°19'1616.1
2015-Jun-28 16:33N 56°10' E 012°30'1616.5
2015-Jun-28 15:34N 55°56' E 012°43'1413.8
2015-Jun-28 14:33N 55°42' E 012°37'0 0.5
2015-Jun-28 13:31N 55°42' E 012°36'0 0.0
2015-Jun-28 12:31N 55°42' E 012°36'0 0.0
2015-Jun-28 11:31N 55°42' E 012°36'0 0.0
2015-Jun-28 10:31N 55°42' E 012°36'0 0.0
2015-Jun-28 09:31N 55°42' E 012°36'0 0.0
2015-Jun-28 08:31N 55°42' E 012°36'0 0.3
2015-Jun-28 07:33N 55°42' E 012°36'1211.7
2015-Jun-28 06:33N 55°54' E 012°39'1413.6
2015-Jun-28 05:33N 56°07' E 012°32'1414.5
2015-Jun-28 04:33N 56°20' E 012°22'1515.1
2015-Jun-28 03:33N 56°35' E 012°16'1615.8
2015-Jun-28 02:33N 56°50' E 012°10'1616.2
2015-Jun-28 01:33N 57°06' E 011°59'1616.2
2015-Jun-28 00:33N 57°20' E 011°46'1616.2
2015-Jun-27 23:33N 57°34' E 011°32'1616.3
2015-Jun-27 22:33N 57°49' E 011°17'1716.7
2015-Jun-27 21:33N 58°05' E 011°08'1616.6
2015-Jun-27 20:33N 58°21' E 010°60'3216.1
2015-Jun-27 18:33N 58°52' E 010°44'1716.8
2015-Jun-27 17:33N 59°08' E 010°39'1716.5
2015-Jun-27 16:33N 59°25' E 010°33'1515.1
2015-Jun-27 15:33N 59°40' E 010°37'1413.6
2015-Jun-27 14:32N 59°53' E 010°41'0 0.0
2015-Jun-27 07:20N 59°54' E 010°41'2614.4
2015-Jun-27 05:34N 59°28' E 010°34'1616.2
2015-Jun-27 04:33N 59°12' E 010°39'  

Dump ship's entire track history